sensor_id;sensor_type;location;lat;lon;timestamp;P1;durP1;ratioP1;P2;durP2;ratioP2
10701;SDS011;5402;50.004;8.246;2023-09-12T00:00:19;15.77;;;10.13;;
10701;SDS011;5402;50.004;8.246;2023-09-12T00:02:49;12.77;;;10.32;;
10701;SDS011;5402;50.004;8.246;2023-09-12T00:05:16;15.82;;;10.25;;
10701;SDS011;5402;50.004;8.246;2023-09-12T00:07:43;16.90;;;10.70;;
10701;SDS011;5402;50.004;8.246;2023-09-12T00:10:09;18.10;;;11.13;;
10701;SDS011;5402;50.004;8.246;2023-09-12T00:12:36;17.77;;;11.38;;
10701;SDS011;5402;50.004;8.246;2023-09-12T00:15:03;17.25;;;11.63;;
10701;SDS011;5402;50.004;8.246;2023-09-12T00:17:30;14.20;;;11.60;;
10701;SDS011;5402;50.004;8.246;2023-09-12T00:19:58;15.30;;;11.43;;
10701;SDS011;5402;50.004;8.246;2023-09-12T00:22:25;16.08;;;11.48;;
10701;SDS011;5402;50.004;8.246;2023-09-12T00:24:52;19.20;;;11.70;;
10701;SDS011;5402;50.004;8.246;2023-09-12T00:27:18;16.67;;;11.77;;
10701;SDS011;5402;50.004;8.246;2023-09-12T00:29:45;16.52;;;12.88;;
10701;SDS011;5402;50.004;8.246;2023-09-12T00:32:12;14.82;;;12.20;;
10701;SDS011;5402;50.004;8.246;2023-09-12T00:34:38;13.10;;;11.18;;
10701;SDS011;5402;50.004;8.246;2023-09-12T00:37:07;13.50;;;11.40;;
10701;SDS011;5402;50.004;8.246;2023-09-12T00:39:33;11.93;;;10.63;;
10701;SDS011;5402;50.004;8.246;2023-09-12T00:42:00;17.27;;;11.18;;
10701;SDS011;5402;50.004;8.246;2023-09-12T00:44:27;16.45;;;10.18;;
10701;SDS011;5402;50.004;8.246;2023-09-12T00:46:53;13.00;;;9.07;;
10701;SDS011;5402;50.004;8.246;2023-09-12T00:49:22;13.10;;;9.25;;
10701;SDS011;5402;50.004;8.246;2023-09-12T00:51:50;16.25;;;9.43;;
10701;SDS011;5402;50.004;8.246;2023-09-12T00:54:19;13.77;;;8.50;;
10701;SDS011;5402;50.004;8.246;2023-09-12T00:56:46;16.88;;;9.35;;
10701;SDS011;5402;50.004;8.246;2023-09-12T00:59:13;12.98;;;9.07;;
10701;SDS011;5402;50.004;8.246;2023-09-12T01:01:41;13.63;;;8.90;;
10701;SDS011;5402;50.004;8.246;2023-09-12T01:04:08;13.50;;;8.65;;
10701;SDS011;5402;50.004;8.246;2023-09-12T01:06:36;13.00;;;8.80;;
10701;SDS011;5402;50.004;8.246;2023-09-12T01:09:03;16.63;;;8.77;;
10701;SDS011;5402;50.004;8.246;2023-09-12T01:11:31;10.68;;;8.70;;
10701;SDS011;5402;50.004;8.246;2023-09-12T01:13:58;14.33;;;8.93;;
10701;SDS011;5402;50.004;8.246;2023-09-12T01:16:25;13.40;;;8.55;;
10701;SDS011;5402;50.004;8.246;2023-09-12T01:18:52;11.02;;;8.63;;
10701;SDS011;5402;50.004;8.246;2023-09-12T01:21:32;12.03;;;8.90;;
10701;SDS011;5402;50.004;8.246;2023-09-12T01:27:19;12.80;;;9.10;;
10701;SDS011;5402;50.004;8.246;2023-09-12T01:29:49;14.05;;;9.65;;
10701;SDS011;5402;50.004;8.246;2023-09-12T01:32:19;14.60;;;9.37;;
10701;SDS011;5402;50.004;8.246;2023-09-12T01:34:46;11.30;;;9.03;;
10701;SDS011;5402;50.004;8.246;2023-09-12T01:37:13;13.23;;;9.60;;
10701;SDS011;5402;50.004;8.246;2023-09-12T01:39:40;13.80;;;9.97;;
10701;SDS011;5402;50.004;8.246;2023-09-12T01:42:08;15.68;;;9.85;;
10701;SDS011;5402;50.004;8.246;2023-09-12T01:44:42;13.53;;;9.70;;
10701;SDS011;5402;50.004;8.246;2023-09-12T01:47:10;12.60;;;9.43;;
10701;SDS011;5402;50.004;8.246;2023-09-12T01:49:38;13.77;;;9.20;;
10701;SDS011;5402;50.004;8.246;2023-09-12T01:52:07;15.13;;;9.20;;
10701;SDS011;5402;50.004;8.246;2023-09-12T01:54:35;15.93;;;9.10;;
10701;SDS011;5402;50.004;8.246;2023-09-12T01:57:04;11.70;;;9.20;;
10701;SDS011;5402;50.004;8.246;2023-09-12T01:59:31;14.30;;;10.10;;
10701;SDS011;5402;50.004;8.246;2023-09-12T02:01:59;14.43;;;10.83;;
10701;SDS011;5402;50.004;8.246;2023-09-12T02:04:27;14.43;;;9.60;;
10701;SDS011;5402;50.004;8.246;2023-09-12T02:06:53;13.83;;;9.17;;
10701;SDS011;5402;50.004;8.246;2023-09-12T02:09:20;14.07;;;9.83;;
10701;SDS011;5402;50.004;8.246;2023-09-12T02:11:47;15.60;;;9.80;;
10701;SDS011;5402;50.004;8.246;2023-09-12T02:14:14;14.17;;;9.77;;
10701;SDS011;5402;50.004;8.246;2023-09-12T02:16:42;13.00;;;9.17;;
10701;SDS011;5402;50.004;8.246;2023-09-12T02:19:11;16.83;;;9.13;;
10701;SDS011;5402;50.004;8.246;2023-09-12T02:21:37;10.87;;;9.50;;
10701;SDS011;5402;50.004;8.246;2023-09-12T02:24:04;12.37;;;9.40;;
10701;SDS011;5402;50.004;8.246;2023-09-12T02:26:31;14.30;;;9.53;;
10701;SDS011;5402;50.004;8.246;2023-09-12T02:29:01;15.93;;;9.40;;
10701;SDS011;5402;50.004;8.246;2023-09-12T02:31:28;13.87;;;9.73;;
10701;SDS011;5402;50.004;8.246;2023-09-12T02:33:54;14.73;;;9.90;;
10701;SDS011;5402;50.004;8.246;2023-09-12T02:36:22;14.47;;;9.73;;
10701;SDS011;5402;50.004;8.246;2023-09-12T02:38:49;15.17;;;10.10;;
10701;SDS011;5402;50.004;8.246;2023-09-12T02:41:16;15.23;;;9.83;;
10701;SDS011;5402;50.004;8.246;2023-09-12T02:43:43;11.80;;;9.57;;
10701;SDS011;5402;50.004;8.246;2023-09-12T02:46:09;11.43;;;9.03;;
10701;SDS011;5402;50.004;8.246;2023-09-12T02:48:36;13.27;;;9.13;;
10701;SDS011;5402;50.004;8.246;2023-09-12T02:51:03;12.63;;;8.37;;
10701;SDS011;5402;50.004;8.246;2023-09-12T02:53:31;16.43;;;9.60;;
10701;SDS011;5402;50.004;8.246;2023-09-12T02:55:58;14.47;;;9.37;;
10701;SDS011;5402;50.004;8.246;2023-09-12T02:58:24;15.53;;;9.43;;
10701;SDS011;5402;50.004;8.246;2023-09-12T03:00:51;14.83;;;9.80;;
10701;SDS011;5402;50.004;8.246;2023-09-12T03:03:19;15.60;;;10.43;;
10701;SDS011;5402;50.004;8.246;2023-09-12T03:05:46;14.63;;;9.47;;
10701;SDS011;5402;50.004;8.246;2023-09-12T03:08:13;15.03;;;9.63;;
10701;SDS011;5402;50.004;8.246;2023-09-12T03:10:41;14.57;;;9.83;;
10701;SDS011;5402;50.004;8.246;2023-09-12T03:13:07;15.60;;;9.50;;
10701;SDS011;5402;50.004;8.246;2023-09-12T03:15:37;13.57;;;9.27;;
10701;SDS011;5402;50.004;8.246;2023-09-12T03:18:04;15.90;;;9.67;;
10701;SDS011;5402;50.004;8.246;2023-09-12T03:20:31;15.77;;;9.70;;
10701;SDS011;5402;50.004;8.246;2023-09-12T03:22:58;13.63;;;8.80;;
10701;SDS011;5402;50.004;8.246;2023-09-12T03:25:24;15.70;;;9.23;;
10701;SDS011;5402;50.004;8.246;2023-09-12T03:27:52;13.40;;;9.43;;
10701;SDS011;5402;50.004;8.246;2023-09-12T03:30:19;14.47;;;8.87;;
10701;SDS011;5402;50.004;8.246;2023-09-12T03:32:46;13.63;;;8.87;;
10701;SDS011;5402;50.004;8.246;2023-09-12T03:35:13;13.57;;;8.90;;
10701;SDS011;5402;50.004;8.246;2023-09-12T03:37:40;13.53;;;8.90;;
10701;SDS011;5402;50.004;8.246;2023-09-12T03:40:08;15.13;;;8.97;;
10701;SDS011;5402;50.004;8.246;2023-09-12T03:42:36;13.00;;;9.90;;
10701;SDS011;5402;50.004;8.246;2023-09-12T03:45:05;13.10;;;9.40;;
10701;SDS011;5402;50.004;8.246;2023-09-12T03:47:32;12.83;;;8.60;;
10701;SDS011;5402;50.004;8.246;2023-09-12T03:49:59;15.47;;;9.37;;
10701;SDS011;5402;50.004;8.246;2023-09-12T03:52:26;14.03;;;9.30;;
10701;SDS011;5402;50.004;8.246;2023-09-12T03:54:52;13.10;;;8.37;;
10701;SDS011;5402;50.004;8.246;2023-09-12T03:57:19;11.27;;;8.60;;
10701;SDS011;5402;50.004;8.246;2023-09-12T03:59:46;14.70;;;9.43;;
10701;SDS011;5402;50.004;8.246;2023-09-12T04:02:14;16.87;;;8.90;;
10701;SDS011;5402;50.004;8.246;2023-09-12T04:04:41;13.00;;;9.20;;
10701;SDS011;5402;50.004;8.246;2023-09-12T04:07:07;11.70;;;8.43;;
10701;SDS011;5402;50.004;8.246;2023-09-12T04:09:34;11.70;;;8.07;;
10701;SDS011;5402;50.004;8.246;2023-09-12T04:12:01;11.97;;;9.50;;
10701;SDS011;5402;50.004;8.246;2023-09-12T04:14:28;12.70;;;8.87;;
10701;SDS011;5402;50.004;8.246;2023-09-12T04:16:54;16.30;;;8.60;;
10701;SDS011;5402;50.004;8.246;2023-09-12T04:19:22;15.93;;;9.00;;
10701;SDS011;5402;50.004;8.246;2023-09-12T04:21:49;9.73;;;8.07;;
10701;SDS011;5402;50.004;8.246;2023-09-12T04:24:16;13.97;;;9.03;;
10701;SDS011;5402;50.004;8.246;2023-09-12T04:26:43;15.33;;;8.70;;
10701;SDS011;5402;50.004;8.246;2023-09-12T04:29:10;10.43;;;8.00;;
10701;SDS011;5402;50.004;8.246;2023-09-12T04:31:36;14.53;;;9.00;;
10701;SDS011;5402;50.004;8.246;2023-09-12T04:34:03;14.03;;;8.53;;
10701;SDS011;5402;50.004;8.246;2023-09-12T04:36:32;13.60;;;8.30;;
10701;SDS011;5402;50.004;8.246;2023-09-12T04:38:58;14.30;;;8.70;;
10701;SDS011;5402;50.004;8.246;2023-09-12T04:41:25;12.10;;;8.80;;
10701;SDS011;5402;50.004;8.246;2023-09-12T04:43:52;15.03;;;9.00;;
10701;SDS011;5402;50.004;8.246;2023-09-12T04:46:19;12.83;;;8.67;;
10701;SDS011;5402;50.004;8.246;2023-09-12T04:48:45;10.47;;;8.43;;
10701;SDS011;5402;50.004;8.246;2023-09-12T04:51:13;14.50;;;8.33;;
10701;SDS011;5402;50.004;8.246;2023-09-12T04:53:41;12.77;;;8.73;;
10701;SDS011;5402;50.004;8.246;2023-09-12T04:56:07;12.43;;;8.10;;
10701;SDS011;5402;50.004;8.246;2023-09-12T04:58:35;12.27;;;8.53;;
10701;SDS011;5402;50.004;8.246;2023-09-12T05:01:01;12.23;;;8.30;;
10701;SDS011;5402;50.004;8.246;2023-09-12T05:03:28;19.20;;;8.70;;
10701;SDS011;5402;50.004;8.246;2023-09-12T05:05:56;10.70;;;7.87;;
10701;SDS011;5402;50.004;8.246;2023-09-12T05:08:23;13.27;;;8.80;;
10701;SDS011;5402;50.004;8.246;2023-09-12T05:10:52;13.17;;;8.77;;
10701;SDS011;5402;50.004;8.246;2023-09-12T05:13:18;14.63;;;8.47;;
10701;SDS011;5402;50.004;8.246;2023-09-12T05:15:46;12.63;;;8.47;;
10701;SDS011;5402;50.004;8.246;2023-09-12T05:18:13;15.83;;;8.83;;
10701;SDS011;5402;50.004;8.246;2023-09-12T05:20:40;10.37;;;8.57;;
10701;SDS011;5402;50.004;8.246;2023-09-12T05:23:06;12.80;;;8.23;;
10701;SDS011;5402;50.004;8.246;2023-09-12T05:25:33;11.90;;;8.70;;
10701;SDS011;5402;50.004;8.246;2023-09-12T05:28:01;11.33;;;7.77;;
10701;SDS011;5402;50.004;8.246;2023-09-12T05:30:29;14.43;;;8.60;;
10701;SDS011;5402;50.004;8.246;2023-09-12T05:32:56;13.50;;;8.40;;
10701;SDS011;5402;50.004;8.246;2023-09-12T05:35:23;15.10;;;8.27;;
10701;SDS011;5402;50.004;8.246;2023-09-12T05:37:50;16.40;;;9.10;;
10701;SDS011;5402;50.004;8.246;2023-09-12T05:40:18;16.20;;;9.30;;
10701;SDS011;5402;50.004;8.246;2023-09-12T05:42:44;14.02;;;9.52;;
10701;SDS011;5402;50.004;8.246;2023-09-12T05:45:13;14.50;;;9.60;;
10701;SDS011;5402;50.004;8.246;2023-09-12T05:47:40;16.10;;;9.70;;
10701;SDS011;5402;50.004;8.246;2023-09-12T05:50:07;15.50;;;9.37;;
10701;SDS011;5402;50.004;8.246;2023-09-12T05:52:34;14.03;;;9.23;;
10701;SDS011;5402;50.004;8.246;2023-09-12T05:55:01;15.10;;;8.70;;
10701;SDS011;5402;50.004;8.246;2023-09-12T05:57:29;13.93;;;8.67;;
10701;SDS011;5402;50.004;8.246;2023-09-12T05:59:58;13.57;;;8.50;;
10701;SDS011;5402;50.004;8.246;2023-09-12T06:02:27;14.07;;;8.67;;
10701;SDS011;5402;50.004;8.246;2023-09-12T06:04:55;14.43;;;8.80;;
10701;SDS011;5402;50.004;8.246;2023-09-12T06:07:22;13.53;;;9.07;;
10701;SDS011;5402;50.004;8.246;2023-09-12T06:09:49;12.60;;;8.67;;
10701;SDS011;5402;50.004;8.246;2023-09-12T06:12:16;15.83;;;9.40;;
10701;SDS011;5402;50.004;8.246;2023-09-12T06:14:43;13.87;;;8.87;;
10701;SDS011;5402;50.004;8.246;2023-09-12T06:17:10;14.70;;;8.93;;
10701;SDS011;5402;50.004;8.246;2023-09-12T06:19:38;14.50;;;9.07;;
10701;SDS011;5402;50.004;8.246;2023-09-12T06:22:05;17.43;;;8.37;;
10701;SDS011;5402;50.004;8.246;2023-09-12T06:24:32;14.00;;;8.93;;
10701;SDS011;5402;50.004;8.246;2023-09-12T06:26:59;14.63;;;8.70;;
10701;SDS011;5402;50.004;8.246;2023-09-12T06:29:25;16.33;;;8.48;;
10701;SDS011;5402;50.004;8.246;2023-09-12T06:31:52;12.68;;;8.70;;
10701;SDS011;5402;50.004;8.246;2023-09-12T06:34:21;16.37;;;9.20;;
10701;SDS011;5402;50.004;8.246;2023-09-12T06:36:49;15.90;;;8.30;;
10701;SDS011;5402;50.004;8.246;2023-09-12T06:39:15;11.63;;;8.73;;
10701;SDS011;5402;50.004;8.246;2023-09-12T06:41:42;15.18;;;9.13;;
10701;SDS011;5402;50.004;8.246;2023-09-12T06:44:09;17.58;;;9.38;;
10701;SDS011;5402;50.004;8.246;2023-09-12T06:46:36;14.57;;;9.00;;
10701;SDS011;5402;50.004;8.246;2023-09-12T06:49:03;15.82;;;9.40;;
10701;SDS011;5402;50.004;8.246;2023-09-12T06:51:30;19.00;;;9.25;;
10701;SDS011;5402;50.004;8.246;2023-09-12T06:53:58;13.82;;;9.20;;
10701;SDS011;5402;50.004;8.246;2023-09-12T06:56:27;15.95;;;9.95;;
10701;SDS011;5402;50.004;8.246;2023-09-12T06:58:53;13.40;;;9.35;;
10701;SDS011;5402;50.004;8.246;2023-09-12T07:01:21;17.20;;;8.98;;
10701;SDS011;5402;50.004;8.246;2023-09-12T07:03:48;15.02;;;8.07;;
10701;SDS011;5402;50.004;8.246;2023-09-12T07:06:18;16.02;;;8.68;;
10701;SDS011;5402;50.004;8.246;2023-09-12T07:08:45;14.00;;;7.90;;
10701;SDS011;5402;50.004;8.246;2023-09-12T07:11:13;14.60;;;7.88;;
10701;SDS011;5402;50.004;8.246;2023-09-12T07:13:40;16.33;;;7.90;;
10701;SDS011;5402;50.004;8.246;2023-09-12T07:16:07;15.38;;;7.82;;
10701;SDS011;5402;50.004;8.246;2023-09-12T07:18:34;15.52;;;7.75;;
10701;SDS011;5402;50.004;8.246;2023-09-12T07:21:01;14.05;;;7.47;;
10701;SDS011;5402;50.004;8.246;2023-09-12T07:23:29;13.30;;;7.45;;
10701;SDS011;5402;50.004;8.246;2023-09-12T07:25:56;14.65;;;7.68;;
10701;SDS011;5402;50.004;8.246;2023-09-12T07:28:24;11.73;;;7.43;;
10701;SDS011;5402;50.004;8.246;2023-09-12T07:30:51;13.15;;;7.75;;
10701;SDS011;5402;50.004;8.246;2023-09-12T07:33:19;14.30;;;7.93;;
10701;SDS011;5402;50.004;8.246;2023-09-12T07:35:46;11.35;;;7.60;;
10701;SDS011;5402;50.004;8.246;2023-09-12T07:38:13;13.63;;;7.57;;
10701;SDS011;5402;50.004;8.246;2023-09-12T07:40:41;15.60;;;7.38;;
10701;SDS011;5402;50.004;8.246;2023-09-12T07:43:07;13.52;;;7.40;;
10701;SDS011;5402;50.004;8.246;2023-09-12T07:45:36;12.15;;;7.68;;
10701;SDS011;5402;50.004;8.246;2023-09-12T07:48:04;14.38;;;7.75;;
10701;SDS011;5402;50.004;8.246;2023-09-12T07:50:32;15.02;;;8.18;;
10701;SDS011;5402;50.004;8.246;2023-09-12T07:52:59;15.57;;;7.60;;
10701;SDS011;5402;50.004;8.246;2023-09-12T07:55:25;17.25;;;8.10;;
10701;SDS011;5402;50.004;8.246;2023-09-12T07:57:55;16.60;;;8.32;;
10701;SDS011;5402;50.004;8.246;2023-09-12T08:00:22;13.13;;;7.68;;
10701;SDS011;5402;50.004;8.246;2023-09-12T08:02:51;14.95;;;7.57;;
10701;SDS011;5402;50.004;8.246;2023-09-12T08:05:18;13.93;;;7.60;;
10701;SDS011;5402;50.004;8.246;2023-09-12T08:07:45;13.95;;;7.55;;
10701;SDS011;5402;50.004;8.246;2023-09-12T08:10:12;13.18;;;7.28;;
10701;SDS011;5402;50.004;8.246;2023-09-12T08:12:38;14.88;;;8.93;;
10701;SDS011;5402;50.004;8.246;2023-09-12T08:15:07;12.63;;;7.90;;
10701;SDS011;5402;50.004;8.246;2023-09-12T08:17:34;15.07;;;8.07;;
10701;SDS011;5402;50.004;8.246;2023-09-12T08:20:03;10.95;;;7.47;;
10701;SDS011;5402;50.004;8.246;2023-09-12T08:22:30;14.15;;;7.50;;
10701;SDS011;5402;50.004;8.246;2023-09-12T08:24:57;10.23;;;7.38;;
10701;SDS011;5402;50.004;8.246;2023-09-12T08:27:24;13.50;;;7.32;;
10701;SDS011;5402;50.004;8.246;2023-09-12T08:29:50;16.45;;;7.60;;
10701;SDS011;5402;50.004;8.246;2023-09-12T08:32:17;12.88;;;7.13;;
10701;SDS011;5402;50.004;8.246;2023-09-12T08:34:44;22.58;;;7.93;;
10701;SDS011;5402;50.004;8.246;2023-09-12T08:37:13;11.30;;;7.80;;
10701;SDS011;5402;50.004;8.246;2023-09-12T08:39:41;14.93;;;7.47;;
10701;SDS011;5402;50.004;8.246;2023-09-12T08:42:11;10.80;;;7.32;;
10701;SDS011;5402;50.004;8.246;2023-09-12T08:44:39;14.55;;;7.35;;
10701;SDS011;5402;50.004;8.246;2023-09-12T08:47:06;13.13;;;6.88;;
10701;SDS011;5402;50.004;8.246;2023-09-12T08:49:35;11.70;;;7.20;;
10701;SDS011;5402;50.004;8.246;2023-09-12T08:52:03;13.10;;;7.45;;
10701;SDS011;5402;50.004;8.246;2023-09-12T08:54:32;15.15;;;7.10;;
10701;SDS011;5402;50.004;8.246;2023-09-12T08:56:59;13.82;;;7.32;;
10701;SDS011;5402;50.004;8.246;2023-09-12T08:59:27;13.88;;;6.97;;
10701;SDS011;5402;50.004;8.246;2023-09-12T09:01:54;13.07;;;7.65;;
10701;SDS011;5402;50.004;8.246;2023-09-12T09:04:23;13.45;;;6.95;;
10701;SDS011;5402;50.004;8.246;2023-09-12T09:06:51;14.23;;;6.97;;
10701;SDS011;5402;50.004;8.246;2023-09-12T09:09:19;14.82;;;6.90;;
10701;SDS011;5402;50.004;8.246;2023-09-12T09:11:48;10.38;;;7.07;;
10701;SDS011;5402;50.004;8.246;2023-09-12T09:14:15;14.32;;;6.93;;
10701;SDS011;5402;50.004;8.246;2023-09-12T09:16:42;12.68;;;6.70;;
10701;SDS011;5402;50.004;8.246;2023-09-12T09:19:08;11.77;;;7.22;;
10701;SDS011;5402;50.004;8.246;2023-09-12T09:21:36;14.23;;;6.78;;
10701;SDS011;5402;50.004;8.246;2023-09-12T09:24:06;13.20;;;6.88;;
10701;SDS011;5402;50.004;8.246;2023-09-12T09:26:41;12.73;;;6.43;;
10701;SDS011;5402;50.004;8.246;2023-09-12T09:29:10;11.63;;;6.75;;
10701;SDS011;5402;50.004;8.246;2023-09-12T09:31:40;10.73;;;6.28;;
10701;SDS011;5402;50.004;8.246;2023-09-12T09:34:10;13.93;;;6.75;;
10701;SDS011;5402;50.004;8.246;2023-09-12T09:36:40;10.05;;;6.88;;
10701;SDS011;5402;50.004;8.246;2023-09-12T09:39:08;18.60;;;7.30;;
10701;SDS011;5402;50.004;8.246;2023-09-12T09:41:35;13.73;;;7.18;;
10701;SDS011;5402;50.004;8.246;2023-09-12T09:44:03;13.77;;;6.72;;
10701;SDS011;5402;50.004;8.246;2023-09-12T09:46:35;15.48;;;7.25;;
10701;SDS011;5402;50.004;8.246;2023-09-12T09:49:03;13.98;;;7.28;;
10701;SDS011;5402;50.004;8.246;2023-09-12T09:51:31;13.05;;;6.95;;
10701;SDS011;5402;50.004;8.246;2023-09-12T09:53:58;12.90;;;6.82;;
10701;SDS011;5402;50.004;8.246;2023-09-12T09:56:25;13.73;;;6.75;;
10701;SDS011;5402;50.004;8.246;2023-09-12T09:58:53;10.45;;;6.30;;
10701;SDS011;5402;50.004;8.246;2023-09-12T10:01:21;14.02;;;6.90;;
10701;SDS011;5402;50.004;8.246;2023-09-12T10:03:50;12.82;;;6.55;;
10701;SDS011;5402;50.004;8.246;2023-09-12T10:06:18;11.77;;;7.25;;
10701;SDS011;5402;50.004;8.246;2023-09-12T10:08:46;11.25;;;7.30;;
10701;SDS011;5402;50.004;8.246;2023-09-12T10:11:17;11.30;;;7.28;;
10701;SDS011;5402;50.004;8.246;2023-09-12T10:13:50;14.07;;;7.35;;
10701;SDS011;5402;50.004;8.246;2023-09-12T10:16:20;14.13;;;6.93;;
10701;SDS011;5402;50.004;8.246;2023-09-12T10:18:54;10.98;;;6.63;;
10701;SDS011;5402;50.004;8.246;2023-09-12T10:21:27;14.77;;;7.35;;
10701;SDS011;5402;50.004;8.246;2023-09-12T10:23:56;12.55;;;7.07;;
10701;SDS011;5402;50.004;8.246;2023-09-12T10:26:25;10.80;;;7.07;;
10701;SDS011;5402;50.004;8.246;2023-09-12T10:28:53;12.13;;;6.85;;
10701;SDS011;5402;50.004;8.246;2023-09-12T10:31:21;13.52;;;7.90;;
10701;SDS011;5402;50.004;8.246;2023-09-12T10:33:51;18.52;;;7.53;;
10701;SDS011;5402;50.004;8.246;2023-09-12T10:36:18;14.05;;;7.63;;
10701;SDS011;5402;50.004;8.246;2023-09-12T10:38:47;12.57;;;7.07;;
10701;SDS011;5402;50.004;8.246;2023-09-12T10:41:15;17.65;;;7.35;;
10701;SDS011;5402;50.004;8.246;2023-09-12T10:43:43;15.70;;;7.75;;
10701;SDS011;5402;50.004;8.246;2023-09-12T10:46:15;14.05;;;7.50;;
10701;SDS011;5402;50.004;8.246;2023-09-12T10:48:42;12.23;;;7.10;;
10701;SDS011;5402;50.004;8.246;2023-09-12T10:51:11;10.27;;;7.25;;
10701;SDS011;5402;50.004;8.246;2023-09-12T10:53:45;12.50;;;7.50;;
10701;SDS011;5402;50.004;8.246;2023-09-12T10:56:14;10.40;;;7.68;;
10701;SDS011;5402;50.004;8.246;2023-09-12T11:01:38;12.50;;;7.30;;
10701;SDS011;5402;50.004;8.246;2023-09-12T11:07:00;12.32;;;7.55;;
10701;SDS011;5402;50.004;8.246;2023-09-12T11:09:27;14.40;;;7.15;;
10701;SDS011;5402;50.004;8.246;2023-09-12T11:11:55;9.27;;;7.45;;
10701;SDS011;5402;50.004;8.246;2023-09-12T11:14:23;15.65;;;7.40;;
10701;SDS011;5402;50.004;8.246;2023-09-12T11:19:48;15.35;;;7.18;;
10701;SDS011;5402;50.004;8.246;2023-09-12T11:22:22;12.65;;;8.00;;
10701;SDS011;5402;50.004;8.246;2023-09-12T11:24:50;13.23;;;7.65;;
10701;SDS011;5402;50.004;8.246;2023-09-12T11:27:16;12.95;;;7.97;;
10701;SDS011;5402;50.004;8.246;2023-09-12T11:29:43;11.73;;;7.43;;
10701;SDS011;5402;50.004;8.246;2023-09-12T11:32:13;15.75;;;7.70;;
10701;SDS011;5402;50.004;8.246;2023-09-12T11:34:51;11.68;;;7.88;;
10701;SDS011;5402;50.004;8.246;2023-09-12T11:37:23;12.05;;;7.88;;
10701;SDS011;5402;50.004;8.246;2023-09-12T11:39:51;12.00;;;8.05;;
10701;SDS011;5402;50.004;8.246;2023-09-12T11:42:17;12.00;;;7.55;;
10701;SDS011;5402;50.004;8.246;2023-09-12T11:44:46;12.93;;;8.05;;
10701;SDS011;5402;50.004;8.246;2023-09-12T11:47:14;11.95;;;7.65;;
10701;SDS011;5402;50.004;8.246;2023-09-12T11:49:41;12.75;;;7.50;;
10701;SDS011;5402;50.004;8.246;2023-09-12T11:52:09;10.25;;;7.85;;
10701;SDS011;5402;50.004;8.246;2023-09-12T11:54:38;9.35;;;7.15;;
10701;SDS011;5402;50.004;8.246;2023-09-12T11:57:07;11.63;;;7.95;;
10701;SDS011;5402;50.004;8.246;2023-09-12T11:59:36;16.38;;;7.80;;
10701;SDS011;5402;50.004;8.246;2023-09-12T12:02:06;11.07;;;8.05;;
10701;SDS011;5402;50.004;8.246;2023-09-12T12:04:33;12.40;;;8.25;;
10701;SDS011;5402;50.004;8.246;2023-09-12T12:07:02;12.23;;;7.68;;
10701;SDS011;5402;50.004;8.246;2023-09-12T12:09:30;13.25;;;7.30;;
10701;SDS011;5402;50.004;8.246;2023-09-12T12:12:04;11.88;;;7.68;;
10701;SDS011;5402;50.004;8.246;2023-09-12T12:14:35;11.73;;;7.30;;
10701;SDS011;5402;50.004;8.246;2023-09-12T12:17:05;9.90;;;7.30;;
10701;SDS011;5402;50.004;8.246;2023-09-12T12:19:33;10.45;;;7.55;;
10701;SDS011;5402;50.004;8.246;2023-09-12T12:22:01;10.70;;;7.38;;
10701;SDS011;5402;50.004;8.246;2023-09-12T12:24:35;12.90;;;6.88;;
10701;SDS011;5402;50.004;8.246;2023-09-12T12:27:05;10.90;;;7.28;;
10701;SDS011;5402;50.004;8.246;2023-09-12T12:29:33;10.20;;;7.50;;
10701;SDS011;5402;50.004;8.246;2023-09-12T12:32:00;10.32;;;7.20;;
10701;SDS011;5402;50.004;8.246;2023-09-12T12:34:27;13.32;;;7.50;;
10701;SDS011;5402;50.004;8.246;2023-09-12T12:36:55;12.25;;;7.05;;
10701;SDS011;5402;50.004;8.246;2023-09-12T12:39:22;12.18;;;8.35;;
10701;SDS011;5402;50.004;8.246;2023-09-12T12:41:51;11.23;;;8.07;;
10701;SDS011;5402;50.004;8.246;2023-09-12T12:44:20;14.82;;;8.23;;
10701;SDS011;5402;50.004;8.246;2023-09-12T12:46:48;11.65;;;8.25;;
10701;SDS011;5402;50.004;8.246;2023-09-12T12:49:15;10.20;;;7.97;;
10701;SDS011;5402;50.004;8.246;2023-09-12T12:51:42;10.93;;;7.88;;
10701;SDS011;5402;50.004;8.246;2023-09-12T12:54:09;13.88;;;8.15;;
10701;SDS011;5402;50.004;8.246;2023-09-12T12:56:36;10.43;;;6.85;;
10701;SDS011;5402;50.004;8.246;2023-09-12T12:59:04;10.73;;;7.45;;
10701;SDS011;5402;50.004;8.246;2023-09-12T13:01:35;11.38;;;8.07;;
10701;SDS011;5402;50.004;8.246;2023-09-12T13:04:04;15.27;;;8.02;;
10701;SDS011;5402;50.004;8.246;2023-09-12T13:06:31;10.55;;;7.97;;
10701;SDS011;5402;50.004;8.246;2023-09-12T13:09:02;17.90;;;8.23;;
10701;SDS011;5402;50.004;8.246;2023-09-12T13:11:30;12.10;;;7.63;;
10701;SDS011;5402;50.004;8.246;2023-09-12T13:13:58;11.85;;;7.97;;
10701;SDS011;5402;50.004;8.246;2023-09-12T13:16:25;11.55;;;8.13;;
10701;SDS011;5402;50.004;8.246;2023-09-12T13:18:53;11.65;;;7.68;;
10701;SDS011;5402;50.004;8.246;2023-09-12T13:21:19;14.13;;;8.18;;
10701;SDS011;5402;50.004;8.246;2023-09-12T13:23:46;15.05;;;7.78;;
10701;SDS011;5402;50.004;8.246;2023-09-12T13:26:13;9.43;;;7.38;;
10701;SDS011;5402;50.004;8.246;2023-09-12T13:28:40;11.75;;;7.80;;
10701;SDS011;5402;50.004;8.246;2023-09-12T13:31:06;9.75;;;7.00;;
10701;SDS011;5402;50.004;8.246;2023-09-12T13:33:33;9.93;;;7.68;;
10701;SDS011;5402;50.004;8.246;2023-09-12T13:36:02;13.85;;;7.82;;
10701;SDS011;5402;50.004;8.246;2023-09-12T13:38:28;12.85;;;7.88;;
10701;SDS011;5402;50.004;8.246;2023-09-12T13:40:55;10.93;;;7.53;;
10701;SDS011;5402;50.004;8.246;2023-09-12T13:43:22;13.15;;;7.72;;
10701;SDS011;5402;50.004;8.246;2023-09-12T13:45:49;13.80;;;8.20;;
10701;SDS011;5402;50.004;8.246;2023-09-12T13:48:15;11.13;;;7.60;;
10701;SDS011;5402;50.004;8.246;2023-09-12T13:50:43;11.20;;;7.78;;
10701;SDS011;5402;50.004;8.246;2023-09-12T13:53:11;12.45;;;7.20;;
10701;SDS011;5402;50.004;8.246;2023-09-12T13:55:38;9.35;;;7.18;;
10701;SDS011;5402;50.004;8.246;2023-09-12T13:58:05;15.63;;;8.30;;
10701;SDS011;5402;50.004;8.246;2023-09-12T14:00:32;13.90;;;7.50;;
10701;SDS011;5402;50.004;8.246;2023-09-12T14:03:00;11.00;;;7.10;;
10701;SDS011;5402;50.004;8.246;2023-09-12T14:05:26;15.48;;;7.45;;
10701;SDS011;5402;50.004;8.246;2023-09-12T14:07:54;10.57;;;7.00;;
10701;SDS011;5402;50.004;8.246;2023-09-12T14:10:22;11.18;;;7.57;;
10701;SDS011;5402;50.004;8.246;2023-09-12T14:12:49;11.13;;;7.47;;
10701;SDS011;5402;50.004;8.246;2023-09-12T14:15:16;13.38;;;7.28;;
10701;SDS011;5402;50.004;8.246;2023-09-12T14:17:42;11.18;;;7.18;;
10701;SDS011;5402;50.004;8.246;2023-09-12T14:20:09;13.75;;;8.15;;
10701;SDS011;5402;50.004;8.246;2023-09-12T14:22:40;10.18;;;7.05;;
10701;SDS011;5402;50.004;8.246;2023-09-12T14:25:08;11.70;;;7.93;;
10701;SDS011;5402;50.004;8.246;2023-09-12T14:27:41;8.98;;;6.80;;
10701;SDS011;5402;50.004;8.246;2023-09-12T14:30:09;11.65;;;6.70;;
10701;SDS011;5402;50.004;8.246;2023-09-12T14:32:38;10.50;;;7.32;;
10701;SDS011;5402;50.004;8.246;2023-09-12T14:35:05;9.98;;;7.40;;
10701;SDS011;5402;50.004;8.246;2023-09-12T14:37:32;13.57;;;7.20;;
10701;SDS011;5402;50.004;8.246;2023-09-12T14:40:00;11.20;;;7.20;;
10701;SDS011;5402;50.004;8.246;2023-09-12T14:42:29;11.13;;;7.38;;
10701;SDS011;5402;50.004;8.246;2023-09-12T14:44:57;10.93;;;7.57;;
10701;SDS011;5402;50.004;8.246;2023-09-12T14:47:24;8.27;;;7.35;;
10701;SDS011;5402;50.004;8.246;2023-09-12T14:49:52;14.90;;;7.68;;
10701;SDS011;5402;50.004;8.246;2023-09-12T14:52:19;12.57;;;7.95;;
10701;SDS011;5402;50.004;8.246;2023-09-12T14:54:46;13.90;;;8.20;;
10701;SDS011;5402;50.004;8.246;2023-09-12T14:57:13;11.73;;;7.70;;
10701;SDS011;5402;50.004;8.246;2023-09-12T14:59:40;12.05;;;8.02;;
10701;SDS011;5402;50.004;8.246;2023-09-12T15:02:08;14.48;;;7.90;;